createdAt,value
2022-08-03T00:00:30.279Z,15.09
2022-08-03T00:01:30.340Z,15.07
2022-08-03T00:02:30.305Z,15.09
2022-08-03T00:03:30.308Z,15.13
2022-08-03T00:04:34.184Z,15.12
2022-08-03T00:05:31.540Z,15.12
2022-08-03T00:06:36.759Z,15.18
2022-08-03T00:07:34.565Z,15.15
2022-08-03T00:08:34.333Z,15.15
2022-08-03T00:09:37.277Z,15.24
2022-08-03T00:10:37.159Z,15.18
2022-08-03T00:11:37.265Z,15.18
2022-08-03T00:12:37.220Z,15.19
2022-08-03T00:13:37.201Z,15.11
2022-08-03T00:14:37.171Z,15.12
2022-08-03T00:15:37.322Z,15.2
2022-08-03T00:16:37.291Z,15.24
2022-08-03T00:17:53.685Z,15.21
2022-08-03T00:18:41.123Z,15.3
2022-08-03T00:19:41.092Z,15.33
2022-08-03T00:20:41.255Z,15.33
2022-08-03T00:21:41.015Z,15.28
2022-08-03T00:22:41.214Z,15.17
2022-08-03T00:23:51.176Z,15.15
2022-08-03T00:24:44.627Z,15.04
2022-08-03T00:25:44.600Z,15.12
2022-08-03T00:26:44.562Z,15.35
2022-08-03T00:27:44.764Z,15.29
2022-08-03T00:28:44.716Z,15.07
2022-08-03T00:29:59.399Z,14.99
2022-08-03T00:30:47.232Z,14.93
2022-08-03T00:31:59.209Z,14.98
2022-08-03T00:32:51.984Z,15.08
2022-08-03T00:33:59.035Z,15.09
2022-08-03T00:34:57.813Z,15.02
2022-08-03T00:35:56.999Z,14.97
2022-08-03T00:36:56.797Z,14.88
2022-08-03T00:37:57.313Z,14.73
2022-08-03T00:38:57.006Z,14.78
2022-08-03T00:39:56.961Z,14.83
2022-08-03T00:40:57.004Z,14.79
2022-08-03T00:41:57.081Z,14.67
2022-08-03T00:42:58.318Z,14.63
2022-08-03T00:43:57.022Z,14.62
2022-08-03T00:44:57.143Z,14.69
2022-08-03T00:45:57.214Z,14.72
2022-08-03T00:46:57.026Z,14.69
2022-08-03T00:47:57.547Z,14.66
2022-08-03T00:48:57.049Z,14.71
2022-08-03T00:49:58.180Z,14.68
2022-08-03T00:50:57.797Z,14.61
2022-08-03T00:51:57.174Z,14.54
2022-08-03T00:52:58.556Z,14.41
2022-08-03T00:53:57.161Z,14.37
2022-08-03T00:54:57.123Z,14.53
2022-08-03T00:55:57.545Z,14.68
2022-08-03T00:56:59.822Z,14.71
2022-08-03T00:57:58.013Z,14.74
2022-08-03T00:58:57.728Z,14.59
2022-08-03T00:59:57.454Z,14.88
2022-08-03T01:00:57.555Z,14.82
2022-08-03T01:01:57.582Z,14.51
2022-08-03T01:02:57.612Z,14.27
2022-08-03T01:03:57.493Z,14.1
2022-08-03T01:04:57.564Z,14.08
2022-08-03T01:12:15.901Z,14.35
2022-08-03T01:14:20.972Z,14.24
2022-08-03T01:16:23.055Z,14.07
2022-08-03T01:17:28.480Z,14
2022-08-03T01:18:34.682Z,13.97
2022-08-03T01:24:47.061Z,13.81
2022-08-03T01:30:53.474Z,13.57
2022-08-03T01:34:03.426Z,13.46
2022-08-03T01:35:01.435Z,13.48
2022-08-03T01:36:00.492Z,13.53
2022-08-03T01:37:01.151Z,13.55
2022-08-03T01:39:02.288Z,13.48
2022-08-03T01:40:02.163Z,13.5
2022-08-03T01:42:07.662Z,13.47
2022-08-03T01:43:07.739Z,13.53
2022-08-03T01:44:29.358Z,13.48
2022-08-03T01:45:12.055Z,13.5
2022-08-03T01:46:10.384Z,13.5
2022-08-03T01:47:11.596Z,13.52
2022-08-03T01:48:11.683Z,13.45
2022-08-03T01:49:11.683Z,13.49
2022-08-03T01:50:10.904Z,13.51
2022-08-03T01:51:10.776Z,13.44
2022-08-03T01:52:11.277Z,13.48
2022-08-03T01:53:10.514Z,13.48
2022-08-03T01:54:11.742Z,13.5
2022-08-03T01:55:12.188Z,13.5
2022-08-03T01:56:10.320Z,13.53
2022-08-03T01:57:10.616Z,13.45
2022-08-03T01:58:11.266Z,13.42
2022-08-03T01:59:10.798Z,13.39
2022-08-03T02:00:10.753Z,13.39
2022-08-03T02:01:11.615Z,13.37
2022-08-03T02:02:29.892Z,13.39
2022-08-03T02:03:15.443Z,13.37
2022-08-03T02:04:17.285Z,13.46
2022-08-03T02:05:14.900Z,13.41
2022-08-03T02:06:59.691Z,13.43
2022-08-03T02:07:17.130Z,13.43
2022-08-03T02:08:17.401Z,13.32
2022-08-03T02:09:17.469Z,13.3
2022-08-03T02:10:34.356Z,13.27
2022-08-03T02:11:17.121Z,13.51
2022-08-03T02:12:18.159Z,13.48
2022-08-03T02:13:17.142Z,13.46
2022-08-03T02:14:17.433Z,13.55
2022-08-03T02:15:18.024Z,13.54
2022-08-03T02:16:18.276Z,13.81
2022-08-03T02:17:16.753Z,14.05
2022-08-03T02:18:18.273Z,13.87
2022-08-03T02:19:18.226Z,13.82
2022-08-03T02:20:17.473Z,13.67
2022-08-03T02:21:33.047Z,13.64
2022-08-03T02:22:18.725Z,13.58
2022-08-03T02:23:19.090Z,13.54
2022-08-03T02:24:18.765Z,13.39
2022-08-03T02:25:18.771Z,13.4
2022-08-03T02:26:20.142Z,13.65
2022-08-03T02:27:21.257Z,13.63
2022-08-03T02:28:21.238Z,13.61
2022-08-03T02:29:21.487Z,13.59
2022-08-03T02:30:23.676Z,13.62
2022-08-03T02:31:24.265Z,13.52
2022-08-03T02:32:24.679Z,13.77
2022-08-03T02:33:25.835Z,13.58
2022-08-03T02:34:24.322Z,13.58
2022-08-03T02:35:24.456Z,13.78
2022-08-03T02:36:25.297Z,13.64
2022-08-03T02:37:24.939Z,13.89
2022-08-03T02:38:26.188Z,13.92
2022-08-03T02:39:25.104Z,14.03
2022-08-03T02:40:23.495Z,13.93
2022-08-03T02:41:24.739Z,13.91
2022-08-03T02:42:23.369Z,14
2022-08-03T02:43:24.123Z,13.95
2022-08-03T02:44:25.043Z,13.98
2022-08-03T02:45:24.393Z,14.02
2022-08-03T02:46:24.522Z,14.03
2022-08-03T02:47:23.402Z,13.98
2022-08-03T02:48:25.386Z,14.18
2022-08-03T02:49:49.446Z,14.23
2022-08-03T02:50:26.155Z,14.34
2022-08-03T02:51:26.732Z,14.35
2022-08-03T02:52:26.813Z,14.48
2022-08-03T02:53:26.467Z,14.43
2022-08-03T02:54:26.386Z,14.37
2022-08-03T02:55:26.162Z,14.64
2022-08-03T02:56:25.762Z,14.58
2022-08-03T02:57:26.553Z,14.51
2022-08-03T02:58:25.905Z,14.53
2022-08-03T02:59:25.754Z,14.52
2022-08-03T03:00:28.512Z,14.46
2022-08-03T03:01:27.236Z,14.27
2022-08-03T03:02:25.451Z,14.04
2022-08-03T03:03:25.965Z,14.02
2022-08-03T03:04:30.009Z,14.01
2022-08-03T03:05:53.403Z,14.06
2022-08-03T03:06:32.421Z,14.06
2022-08-03T03:07:36.037Z,14.19
2022-08-03T03:08:33.205Z,14.35
2022-08-03T03:09:40.387Z,14.44
2022-08-03T03:10:35.015Z,14.49
2022-08-03T03:11:36.274Z,14.53
2022-08-03T03:12:37.061Z,14.59
2022-08-03T03:13:35.234Z,14.61
2022-08-03T03:14:35.052Z,14.65
2022-08-03T03:15:35.611Z,14.79
2022-08-03T03:16:35.001Z,14.81
2022-08-03T03:17:35.561Z,14.83
2022-08-03T03:18:35.196Z,14.72
2022-08-03T03:19:35.280Z,14.78
2022-08-03T03:20:35.186Z,14.87
2022-08-03T03:21:35.336Z,14.77
2022-08-03T03:22:35.534Z,14.7
2022-08-03T03:23:39.188Z,14.79
2022-08-03T03:24:36.429Z,14.73
2022-08-03T03:25:36.379Z,14.89
2022-08-03T03:26:40.713Z,14.88
2022-08-03T03:27:39.475Z,14.83
2022-08-03T03:28:38.941Z,14.68
2022-08-03T03:29:39.268Z,14.71
2022-08-03T03:30:39.109Z,14.77
2022-08-03T03:31:39.272Z,14.86
2022-08-03T03:32:39.069Z,14.84
2022-08-03T03:33:39.140Z,14.88
2022-08-03T03:34:38.931Z,14.96
2022-08-03T03:35:40.219Z,14.89
2022-08-03T03:36:39.076Z,14.93
2022-08-03T03:37:39.163Z,15.01
2022-08-03T03:38:39.195Z,14.96
2022-08-03T03:39:39.133Z,15.03
2022-08-03T03:40:39.281Z,15.06
2022-08-03T03:41:39.992Z,15.03
2022-08-03T03:42:39.343Z,14.94
2022-08-03T03:43:39.184Z,14.93
2022-08-03T03:44:39.343Z,14.91
2022-08-03T03:45:40.969Z,14.94
2022-08-03T03:46:39.733Z,15.07
2022-08-03T03:47:39.398Z,15.09
2022-08-03T03:48:39.420Z,15.08
2022-08-03T03:49:39.902Z,15.09
2022-08-03T03:50:39.266Z,15.11
2022-08-03T03:51:39.248Z,15.07
2022-08-03T03:52:39.292Z,15.08
2022-08-03T03:53:39.425Z,15.11
2022-08-03T03:54:40.127Z,15.05
2022-08-03T03:56:01.181Z,15.03
2022-08-03T03:56:41.318Z,15.05
2022-08-03T03:57:41.105Z,15.06
2022-08-03T03:58:41.242Z,15.11
2022-08-03T03:59:42.180Z,15.11
2022-08-03T04:00:41.378Z,15.09
2022-08-03T04:01:41.163Z,15.1
2022-08-03T04:02:41.396Z,15.02
2022-08-03T04:03:41.263Z,15.03
2022-08-03T04:04:41.287Z,15.06
2022-08-03T04:05:45.798Z,15
2022-08-03T04:06:42.406Z,15
2022-08-03T04:08:45.373Z,15
2022-08-03T04:09:47.635Z,15.02
2022-08-03T04:10:48.511Z,15.01
2022-08-03T04:11:51.420Z,14.99
2022-08-03T04:12:51.203Z,15
2022-08-03T04:14:01.866Z,15.05
2022-08-03T04:14:50.535Z,15.08
2022-08-03T04:15:50.722Z,15.06
2022-08-03T04:16:51.884Z,15.08
2022-08-03T04:17:50.335Z,15.09
2022-08-03T04:18:53.835Z,15.09
2022-08-03T04:19:53.285Z,15.1
2022-08-03T04:20:51.947Z,15.12
2022-08-03T04:21:51.968Z,15.13
2022-08-03T04:22:51.528Z,15.14
2022-08-03T04:23:55.818Z,15.12
2022-08-03T04:25:00.027Z,15.12
2022-08-03T04:25:57.892Z,15.13
2022-08-03T04:26:57.896Z,15.15
2022-08-03T04:28:29.182Z,15.15
2022-08-03T04:29:01.569Z,15.13
2022-08-03T04:30:02.624Z,15.19
2022-08-03T04:31:02.391Z,15.26
2022-08-03T04:32:08.721Z,15.27
2022-08-03T04:33:06.360Z,15.23
2022-08-03T04:34:05.378Z,15.28
2022-08-03T04:35:06.652Z,15.23
2022-08-03T04:36:06.890Z,15.22
2022-08-03T04:38:07.586Z,15.3
2022-08-03T04:39:10.783Z,15.32
2022-08-03T04:40:09.639Z,15.39
2022-08-03T04:41:08.356Z,15.47
2022-08-03T04:42:09.060Z,15.45
2022-08-03T04:43:08.978Z,15.48
2022-08-03T04:44:08.638Z,15.48
2022-08-03T04:45:08.377Z,15.51
2022-08-03T04:46:08.478Z,15.53
2022-08-03T04:47:07.919Z,15.53
2022-08-03T04:48:07.550Z,15.51
2022-08-03T04:49:07.774Z,15.5
2022-08-03T04:50:12.512Z,15.59
2022-08-03T04:51:09.901Z,15.62
2022-08-03T04:52:10.312Z,15.59
2022-08-03T04:53:09.833Z,15.6
2022-08-03T04:54:13.200Z,15.65
2022-08-03T04:55:09.976Z,15.7
2022-08-03T04:56:09.988Z,15.74
2022-08-03T04:57:23.183Z,15.74
2022-08-03T04:58:10.624Z,15.73
2022-08-03T04:59:11.118Z,15.69
2022-08-03T05:00:11.054Z,15.73
2022-08-03T05:01:10.813Z,15.73
2022-08-03T05:02:10.739Z,15.76
2022-08-03T05:03:20.363Z,15.77
2022-08-03T05:04:11.670Z,15.84
2022-08-03T05:05:11.452Z,15.93
2022-08-03T05:06:11.810Z,16
2022-08-03T05:07:12.631Z,16.07
2022-08-03T05:08:11.432Z,16.05
2022-08-03T05:09:11.525Z,16.08
2022-08-03T05:10:16.186Z,16.11
2022-08-03T05:11:13.792Z,16.12
2022-08-03T05:12:13.714Z,16.14
2022-08-03T05:13:13.569Z,16.19
2022-08-03T05:14:13.556Z,16.21
2022-08-03T05:15:14.133Z,16.21
2022-08-03T05:16:14.176Z,16.26
2022-08-03T05:17:13.631Z,16.3
2022-08-03T05:18:14.477Z,16.32
2022-08-03T05:19:13.634Z,16.39
2022-08-03T05:20:13.718Z,16.38
2022-08-03T05:21:13.789Z,16.47
2022-08-03T05:22:14.170Z,16.44
2022-08-03T05:23:13.780Z,16.51
2022-08-03T05:24:13.769Z,16.52
2022-08-03T05:25:19.280Z,16.54
2022-08-03T05:26:17.613Z,16.52
2022-08-03T05:27:17.878Z,16.54
2022-08-03T05:28:17.583Z,16.48
2022-08-03T05:29:17.672Z,16.49
2022-08-03T05:30:31.173Z,16.5
2022-08-03T05:31:21.188Z,16.5
2022-08-03T05:32:21.565Z,16.57
2022-08-03T05:33:21.235Z,16.62
2022-08-03T05:34:21.109Z,16.63
2022-08-03T05:35:57.776Z,16.62
2022-08-03T05:36:23.015Z,16.66
2022-08-03T05:37:23.075Z,16.73
2022-08-03T05:38:23.885Z,16.82
2022-08-03T05:39:25.462Z,16.93
2022-08-03T05:40:25.527Z,16.87
2022-08-03T05:41:37.036Z,17.04
2022-08-03T05:42:29.106Z,17.15
2022-08-03T05:43:29.115Z,17.18
2022-08-03T05:44:29.160Z,17.27
2022-08-03T05:45:29.229Z,17.24
2022-08-03T05:46:29.194Z,17.28
2022-08-03T05:47:29.411Z,17.39
2022-08-03T05:48:29.178Z,17.43
2022-08-03T05:49:29.248Z,17.52
2022-08-03T05:50:29.247Z,17.59
2022-08-03T05:51:29.278Z,17.6
2022-08-03T05:52:29.273Z,17.6
2022-08-03T05:53:29.252Z,17.68
2022-08-03T05:54:56.441Z,17.85
2022-08-03T05:55:30.903Z,17.83
2022-08-03T05:56:30.700Z,17.86
2022-08-03T05:57:30.652Z,17.95
2022-08-03T05:58:30.914Z,17.94
2022-08-03T05:59:38.712Z,18.02
2022-08-03T06:00:35.305Z,18.09
2022-08-03T06:01:35.440Z,18.17
2022-08-03T06:02:35.370Z,18.26
2022-08-03T06:03:35.349Z,18.29
2022-08-03T06:04:35.341Z,18.34
2022-08-03T06:05:35.411Z,18.39
2022-08-03T06:06:39.716Z,18.52
2022-08-03T06:07:40.072Z,18.47
2022-08-03T06:08:40.403Z,18.45
2022-08-03T06:10:33.733Z,18.42
2022-08-03T06:10:41.132Z,18.44
2022-08-03T06:11:41.227Z,18.47
2022-08-03T06:12:41.337Z,18.51
2022-08-03T06:13:41.180Z,18.54
2022-08-03T06:14:41.411Z,18.52
2022-08-03T06:15:41.536Z,18.54
2022-08-03T06:16:41.230Z,18.54
2022-08-03T06:18:43.571Z,18.43
2022-08-03T06:19:43.667Z,18.46
2022-08-03T06:20:43.724Z,18.49
2022-08-03T06:21:43.676Z,18.47
2022-08-03T06:22:51.306Z,18.4
2022-08-03T06:23:52.956Z,18.37
2022-08-03T06:24:53.707Z,18.39
2022-08-03T06:25:51.870Z,18.39
2022-08-03T06:26:51.925Z,18.36
2022-08-03T06:27:51.892Z,18.4
2022-08-03T06:28:54.140Z,18.5
2022-08-03T06:29:51.947Z,18.56
2022-08-03T06:30:51.959Z,18.64
2022-08-03T06:31:52.341Z,18.67
2022-08-03T06:32:52.523Z,18.62
2022-08-03T06:34:33.268Z,18.63
2022-08-03T06:34:53.505Z,18.63
2022-08-03T06:35:53.593Z,18.63
2022-08-03T06:36:55.459Z,18.64
2022-08-03T06:37:55.196Z,18.7
2022-08-03T06:38:55.185Z,18.68
2022-08-03T06:39:55.292Z,18.73
2022-08-03T06:40:55.208Z,18.85
2022-08-03T06:41:55.236Z,18.83
2022-08-03T06:42:59.024Z,18.8
2022-08-03T06:44:03.187Z,18.89
2022-08-03T06:45:00.728Z,18.92
2022-08-03T06:46:00.906Z,18.86
2022-08-03T06:47:00.939Z,18.85
2022-08-03T06:48:04.869Z,19.02
2022-08-03T06:49:01.587Z,19.06
2022-08-03T06:50:16.267Z,19.12
2022-08-03T06:51:04.372Z,19.09
2022-08-03T06:52:06.872Z,19.08
2022-08-03T06:53:05.104Z,19.15
2022-08-03T06:54:04.596Z,19.21
2022-08-03T06:55:05.201Z,19.3
2022-08-03T06:56:05.171Z,19.23
2022-08-03T06:57:04.944Z,19.24
2022-08-03T06:58:04.647Z,19.3
2022-08-03T06:59:05.062Z,19.38
2022-08-03T07:00:11.846Z,19.43
2022-08-03T07:01:09.649Z,19.37
2022-08-03T07:02:09.658Z,19.4
2022-08-03T07:03:09.499Z,19.49
2022-08-03T07:04:09.560Z,19.47
2022-08-03T07:05:10.015Z,19.48
2022-08-03T07:06:09.599Z,19.37
2022-08-03T07:07:09.612Z,19.42
2022-08-03T07:08:09.898Z,19.57
2022-08-03T07:09:09.672Z,19.74
2022-08-03T07:10:10.374Z,19.87
2022-08-03T07:11:09.654Z,19.64
2022-08-03T07:12:09.800Z,19.83
2022-08-03T07:13:09.738Z,19.72
2022-08-03T07:14:09.776Z,19.93
2022-08-03T07:15:20.688Z,19.73
2022-08-03T07:16:11.753Z,19.77
2022-08-03T07:17:12.100Z,20
2022-08-03T07:18:11.781Z,19.94
2022-08-03T07:19:11.729Z,19.96
2022-08-03T07:20:11.724Z,20.12
2022-08-03T07:21:11.729Z,20.06
2022-08-03T07:22:11.888Z,20.11
2022-08-03T07:23:18.974Z,20.16
2022-08-03T07:24:16.031Z,20.32
2022-08-03T07:25:15.984Z,20.27
2022-08-03T07:26:15.967Z,20.27
2022-08-03T07:27:16.707Z,20.42
2022-08-03T07:28:16.003Z,20.21
2022-08-03T07:29:15.901Z,20.11
2022-08-03T07:30:16.221Z,20.29
2022-08-03T07:31:16.044Z,20.42
2022-08-03T07:32:16.372Z,20.57
2022-08-03T07:33:16.003Z,20.63
2022-08-03T07:34:16.145Z,20.76
2022-08-03T07:35:24.433Z,20.63
2022-08-03T07:36:16.655Z,20.52
2022-08-03T07:37:16.713Z,20.65
2022-08-03T07:38:16.664Z,20.67
2022-08-03T07:39:18.104Z,20.64
2022-08-03T07:40:16.753Z,20.71
2022-08-03T07:41:16.923Z,20.64
2022-08-03T07:42:17.098Z,20.63
2022-08-03T07:43:16.660Z,20.72
2022-08-03T07:44:16.874Z,20.85
2022-08-03T07:45:17.001Z,20.93
2022-08-03T07:46:16.900Z,20.91
2022-08-03T07:48:17.238Z,20.74
2022-08-03T07:49:17.345Z,20.84
2022-08-03T07:50:17.327Z,20.9
2022-08-03T07:51:17.338Z,20.77
2022-08-03T07:52:17.512Z,20.9
2022-08-03T07:53:17.328Z,21.31
2022-08-03T07:54:17.379Z,21.41
2022-08-03T07:55:21.371Z,21.54
2022-08-03T07:56:17.878Z,21.41
2022-08-03T07:57:17.843Z,21.43
2022-08-03T07:58:21.968Z,21.69
2022-08-03T07:59:20.375Z,21.67
2022-08-03T08:00:20.597Z,21.5
2022-08-03T08:01:20.487Z,21.39
2022-08-03T08:02:20.368Z,21.36
2022-08-03T08:03:20.510Z,21.34
2022-08-03T08:04:20.472Z,21.51
2022-08-03T08:05:20.631Z,21.61
2022-08-03T08:06:21.000Z,21.42
2022-08-03T08:07:20.777Z,21.44
2022-08-03T08:08:20.594Z,21.51
2022-08-03T08:09:20.444Z,21.61
2022-08-03T08:10:20.568Z,21.95
2022-08-03T08:11:20.619Z,22.11
2022-08-03T08:12:20.917Z,21.82
2022-08-03T08:13:20.521Z,21.93
2022-08-03T08:14:20.570Z,21.97
2022-08-03T08:15:20.655Z,22.15
2022-08-03T08:16:20.485Z,22.18
2022-08-03T08:17:20.621Z,22.1
2022-08-03T08:18:20.543Z,22.25
2022-08-03T08:19:20.686Z,22.08
2022-08-03T08:20:28.471Z,21.98
2022-08-03T08:21:22.908Z,22.08
2022-08-03T08:22:29.918Z,22.56
2022-08-03T08:23:42.500Z,21.98
2022-08-03T08:24:31.190Z,21.96
2022-08-03T08:25:31.977Z,22.03
2022-08-03T08:26:31.150Z,21.89
2022-08-03T08:28:31.450Z,22.04
2022-08-03T08:28:33.784Z,22.38
2022-08-03T08:29:32.648Z,22.4
2022-08-03T08:30:33.397Z,22.21
2022-08-03T08:31:32.589Z,22.55
2022-08-03T08:32:32.714Z,22.54
2022-08-03T08:33:54.279Z,22.46
2022-08-03T08:34:34.205Z,22.47
2022-08-03T08:35:34.315Z,22.38
2022-08-03T08:36:34.847Z,22.31
2022-08-03T08:37:34.343Z,22.42
2022-08-03T08:38:34.965Z,22.13
2022-08-03T08:39:34.234Z,22.29
2022-08-03T08:40:34.474Z,22.56
2022-08-03T08:41:34.281Z,22.51
2022-08-03T08:42:34.470Z,22.55
2022-08-03T08:43:34.315Z,22.4
2022-08-03T08:44:34.274Z,22.39
2022-08-03T08:45:34.393Z,22.88
2022-08-03T08:46:34.378Z,22.84
2022-08-03T08:47:51.084Z,22.7
2022-08-03T08:48:42.585Z,23.07
2022-08-03T08:49:40.488Z,23.01
2022-08-03T08:50:41.491Z,23.12
2022-08-03T08:51:59.296Z,22.93
2022-08-03T08:52:43.513Z,23.35
2022-08-03T08:53:45.768Z,22.87
2022-08-03T08:54:43.763Z,23.33
2022-08-03T08:55:59.131Z,23.05
2022-08-03T08:56:47.363Z,22.66
2022-08-03T08:57:52.404Z,22.4
2022-08-03T08:58:54.803Z,22.65
2022-08-03T09:00:01.953Z,22.39
2022-08-03T09:00:54.175Z,22.47
2022-08-03T09:01:59.749Z,22.52
2022-08-03T09:02:56.901Z,22.45
2022-08-03T09:03:56.734Z,22.59
2022-08-03T09:04:57.279Z,22.79
2022-08-03T09:05:57.119Z,22.46
2022-08-03T09:07:18.768Z,22.58
2022-08-03T09:07:58.373Z,22.66
2022-08-03T09:08:58.333Z,22.63
2022-08-03T09:10:10.500Z,22.32
2022-08-03T09:11:00.189Z,22.57
2022-08-03T09:12:14.577Z,22.55
2022-08-03T09:13:01.620Z,22.63
2022-08-03T09:14:01.655Z,22.55
2022-08-03T09:17:07.295Z,22.36
2022-08-03T09:18:07.835Z,22.59
2022-08-03T09:19:23.142Z,22.63
2022-08-03T09:20:10.362Z,22.78
2022-08-03T09:21:34.249Z,22.95
2022-08-03T09:22:18.747Z,23.26
2022-08-03T09:23:59.505Z,22.86
2022-08-03T09:24:40.824Z,22.94
2022-08-03T09:26:49.612Z,23.48
2022-08-03T09:29:39.093Z,23.57
2022-08-03T09:30:44.821Z,23.59
2022-08-03T09:31:45.810Z,23.95
2022-08-03T09:32:42.605Z,23.69
2022-08-03T09:33:48.681Z,23.32
2022-08-03T09:34:55.348Z,23.35
2022-08-03T09:35:57.291Z,23.44
2022-08-03T09:37:01.134Z,23.67
2022-08-03T09:39:03.263Z,23.61
2022-08-03T09:40:02.234Z,23.51
2022-08-03T09:41:02.219Z,23.8
2022-08-03T09:42:06.138Z,23.53
2022-08-03T09:43:03.143Z,23.34
2022-08-03T09:44:03.231Z,23.27
2022-08-03T09:45:03.220Z,23.34
2022-08-03T09:46:04.076Z,22.97
2022-08-03T09:47:03.696Z,23.01
2022-08-03T09:50:09.186Z,22.74
2022-08-03T09:51:14.151Z,22.85
2022-08-03T09:53:14.975Z,22.48
2022-08-03T09:55:23.508Z,22.23
2022-08-03T09:56:36.243Z,22.23
2022-08-03T09:57:24.970Z,22.33
2022-08-03T09:58:24.759Z,22.37
2022-08-03T09:59:25.024Z,22.28
2022-08-03T10:00:24.128Z,22.52
2022-08-03T10:01:32.556Z,22.84
2022-08-03T10:02:25.834Z,23.33
2022-08-03T10:03:25.677Z,22.92
2022-08-03T10:04:24.867Z,22.95
2022-08-03T10:05:31.939Z,23.14
2022-08-03T10:06:29.329Z,23.07
2022-08-03T10:07:28.769Z,23.29
2022-08-03T10:08:28.876Z,23.11
2022-08-03T10:09:28.847Z,23.34
2022-08-03T10:10:41.775Z,23.26
2022-08-03T10:11:40.556Z,23.42
2022-08-03T10:12:38.819Z,23.46
2022-08-03T10:13:39.956Z,23.29
2022-08-03T10:14:39.226Z,23.36
2022-08-03T10:16:24.147Z,23.6
2022-08-03T10:16:41.100Z,23.43
2022-08-03T10:17:41.113Z,23.66
2022-08-03T10:18:41.018Z,23.53
2022-08-03T10:19:41.065Z,23.01
2022-08-03T10:21:48.106Z,23.67
2022-08-03T10:22:44.610Z,24.03
2022-08-03T10:23:44.670Z,23.85
2022-08-03T10:24:47.863Z,23.63
2022-08-03T10:25:47.101Z,23.82
2022-08-03T10:26:49.746Z,23.93
2022-08-03T10:27:47.936Z,23.85
2022-08-03T10:28:50.272Z,24.01
2022-08-03T10:29:50.521Z,23.84
2022-08-03T10:30:50.787Z,23.63
2022-08-03T10:31:57.297Z,23.43
2022-08-03T10:33:53.442Z,23.77
2022-08-03T10:34:59.902Z,23.73
2022-08-03T10:35:54.288Z,23.41
2022-08-03T10:36:52.724Z,23.43
2022-08-03T10:37:59.301Z,23.43
2022-08-03T10:38:56.214Z,23.4
2022-08-03T10:39:57.381Z,23.12
2022-08-03T10:40:59.118Z,23.16
2022-08-03T10:41:56.769Z,23.23
2022-08-03T10:42:56.780Z,23.35
2022-08-03T10:45:02.864Z,23.05
2022-08-03T10:46:01.585Z,23.16
2022-08-03T10:47:00.014Z,22.99
2022-08-03T10:48:00.302Z,23.09
2022-08-03T10:49:00.214Z,23.21
2022-08-03T10:50:00.274Z,23.26
2022-08-03T10:51:01.490Z,23.09
2022-08-03T10:52:00.209Z,23.03
2022-08-03T10:53:01.930Z,23.28
2022-08-03T10:54:01.912Z,23.35
2022-08-03T10:55:01.226Z,23.29
2022-08-03T10:56:01.062Z,23.39
2022-08-03T10:57:10.965Z,23.22
2022-08-03T10:58:01.312Z,23.19
2022-08-03T10:59:03.766Z,23.42
2022-08-03T11:00:01.524Z,23.47
2022-08-03T11:01:01.511Z,23.51
2022-08-03T11:02:01.838Z,23.41
2022-08-03T11:03:05.518Z,23.25
2022-08-03T11:06:16.914Z,23.25
2022-08-03T11:07:22.105Z,23.2
2022-08-03T11:09:18.224Z,23.18
2022-08-03T11:10:31.337Z,23.47
2022-08-03T11:11:27.157Z,23.44
2022-08-03T11:12:30.597Z,23.49
2022-08-03T11:13:24.589Z,23.54
2022-08-03T11:14:23.744Z,23.55
2022-08-03T11:15:33.073Z,23.4
2022-08-03T11:16:26.769Z,23.53
2022-08-03T11:17:25.331Z,23.86
2022-08-03T11:18:27.116Z,24.26
2022-08-03T11:24:04.486Z,24.22
2022-08-03T11:26:40.776Z,23.88
2022-08-03T11:27:40.758Z,23.93
2022-08-03T11:28:41.349Z,24.08
2022-08-03T11:30:41.943Z,24.27
2022-08-03T11:31:52.405Z,24.27
2022-08-03T11:40:05.105Z,23.82
2022-08-03T11:41:04.906Z,23.96
2022-08-03T11:43:10.772Z,24.87
2022-08-03T11:44:07.146Z,24.99
2022-08-03T11:45:08.128Z,24.67
2022-08-03T11:46:08.274Z,24.53
2022-08-03T11:47:08.834Z,24.55
2022-08-03T11:49:11.557Z,24.21
2022-08-03T11:50:10.773Z,24.44
2022-08-03T11:52:11.633Z,24.56
2022-08-03T11:53:15.667Z,24.77
2022-08-03T11:54:12.213Z,24.5
2022-08-03T11:55:12.582Z,24.49
2022-08-03T11:56:12.880Z,24.51
2022-08-03T11:57:12.290Z,24.25
2022-08-03T11:59:20.240Z,24.91
2022-08-03T12:01:23.391Z,24.62
2022-08-03T12:02:22.604Z,24.3
2022-08-03T12:03:22.561Z,24.31
2022-08-03T12:04:22.403Z,24.35
2022-08-03T12:05:32.538Z,24.39
2022-08-03T12:06:24.434Z,24.35
2022-08-03T12:08:04.422Z,24.41
2022-08-03T12:09:29.151Z,24.44
2022-08-03T12:10:29.091Z,24.27
2022-08-03T12:11:29.124Z,24.25
2022-08-03T12:12:29.199Z,24.04
2022-08-03T12:14:48.376Z,24.15
2022-08-03T12:15:31.313Z,24.44
2022-08-03T12:16:30.662Z,24.82
2022-08-03T12:18:32.374Z,24.94
2022-08-03T12:19:41.959Z,25.05
2022-08-03T12:20:35.126Z,24.84
2022-08-03T12:21:33.513Z,24.82
2022-08-03T12:22:37.610Z,24.49
2022-08-03T12:23:37.633Z,24.86
2022-08-03T12:24:46.631Z,24.75
2022-08-03T12:25:40.043Z,24.97
2022-08-03T12:26:45.271Z,25.11
2022-08-03T12:27:40.623Z,25.12
2022-08-03T12:29:41.361Z,25.69
2022-08-03T12:30:41.477Z,25.43
2022-08-03T12:31:41.262Z,25.3
2022-08-03T12:32:42.885Z,25.39
2022-08-03T12:37:22.952Z,25.42
2022-08-03T12:38:20.909Z,26.04
2022-08-03T12:39:24.203Z,25.77
2022-08-03T12:41:29.254Z,25.12
2022-08-03T12:43:28.301Z,25.01
2022-08-03T12:44:34.688Z,24.54
2022-08-03T12:45:31.164Z,24.45
2022-08-03T12:46:38.143Z,24.42
2022-08-03T12:48:37.093Z,24.71
2022-08-03T12:49:46.495Z,25.12
2022-08-03T12:50:39.125Z,25.67
2022-08-03T12:52:45.236Z,25.02
2022-08-03T12:53:42.231Z,24.89
2022-08-03T12:54:42.429Z,24.81
2022-08-03T12:56:04.565Z,24.91
2022-08-03T12:57:49.094Z,25.1
2022-08-03T12:58:49.151Z,24.88
2022-08-03T12:59:53.285Z,24.77
2022-08-03T13:00:56.716Z,25.13
2022-08-03T13:01:55.283Z,24.89
2022-08-03T13:03:39.569Z,25.28
2022-08-03T13:03:55.859Z,25.33
2022-08-03T13:04:55.681Z,25.1
2022-08-03T13:05:55.524Z,25.27
2022-08-03T13:07:03.571Z,25.75
2022-08-03T13:07:55.715Z,25.48
2022-08-03T13:09:06.330Z,25.81
2022-08-03T13:09:58.314Z,25.87
2022-08-03T13:10:58.303Z,25.75
2022-08-03T13:13:00.996Z,25.45
2022-08-03T13:14:01.030Z,25.57
2022-08-03T13:15:01.126Z,25.45
2022-08-03T13:16:01.072Z,25.16
2022-08-03T13:17:01.059Z,25.54
2022-08-03T13:18:01.077Z,25.15
2022-08-03T13:19:01.090Z,24.83
2022-08-03T13:20:01.054Z,25.79
2022-08-03T13:21:02.224Z,25.53
2022-08-03T13:22:03.461Z,25.39
2022-08-03T13:23:01.853Z,25.58
2022-08-03T13:24:01.897Z,26.04
2022-08-03T13:25:02.367Z,26.49
2022-08-03T13:26:01.938Z,25.79
2022-08-03T13:28:09.920Z,25.97
2022-08-03T13:28:12.469Z,25.66
2022-08-03T13:29:03.951Z,25.56
2022-08-03T13:30:04.488Z,25.27
2022-08-03T13:31:04.567Z,26.14
2022-08-03T13:32:04.700Z,25.68
2022-08-03T13:33:04.104Z,25.67
2022-08-03T13:34:04.104Z,25.58
2022-08-03T13:35:04.566Z,25.4
2022-08-03T13:36:04.211Z,25.08
2022-08-03T13:37:09.439Z,25.08
2022-08-03T13:38:06.373Z,24.86
2022-08-03T13:39:06.370Z,25.08
2022-08-03T13:40:07.340Z,25.43
2022-08-03T13:41:06.395Z,25.57
2022-08-03T13:42:06.562Z,25.86
2022-08-03T13:43:06.421Z,25.52
2022-08-03T13:44:26.701Z,25.84
2022-08-03T13:45:08.093Z,25.79
2022-08-03T13:46:07.920Z,24.91
2022-08-03T13:47:07.880Z,25.39
2022-08-03T13:48:07.878Z,25.56
2022-08-03T13:49:07.955Z,25.14
2022-08-03T13:50:08.557Z,25.52
2022-08-03T13:51:21.874Z,25.06
2022-08-03T13:52:09.756Z,24.63
2022-08-03T13:53:09.750Z,24.52
2022-08-03T13:54:09.742Z,24.61
2022-08-03T13:55:10.007Z,24.46
2022-08-03T13:56:09.761Z,24.23
2022-08-03T13:58:05.826Z,24.11
2022-08-03T13:58:11.295Z,24.32
2022-08-03T13:59:11.243Z,24.16
2022-08-03T14:00:11.631Z,24.28
2022-08-03T14:01:11.496Z,24.24
2022-08-03T14:02:11.415Z,24.09
2022-08-03T14:03:14.991Z,24.08
2022-08-03T14:04:15.932Z,24.14
2022-08-03T14:05:13.571Z,23.93
2022-08-03T14:06:13.529Z,23.95
2022-08-03T14:07:13.496Z,24.11
2022-08-03T14:08:14.517Z,24.02
2022-08-03T14:09:13.954Z,24.15
2022-08-03T14:10:13.689Z,24.14
2022-08-03T14:11:14.294Z,24.03
2022-08-03T14:12:13.670Z,24.22
2022-08-03T14:13:16.671Z,24.23
2022-08-03T14:14:14.307Z,24.05
2022-08-03T14:15:14.476Z,24.03
2022-08-03T14:16:16.974Z,23.99
2022-08-03T14:17:16.454Z,24.05
2022-08-03T14:18:15.599Z,23.98
2022-08-03T14:19:19.041Z,23.95